OTBH/IUD METAR and TAF weather

Enter ICAO airport designator
Station Type Date Time Source
OTBH METAR 2019/08/25 13:56 UTC NOAA

OTBH 251356Z 05010KT 9000 HZ CLR 41/15 A2956 RMK AO2A SLP011 WND DATA ESTMD ALSTG/SLP ESTMD $


Station Type Date Time Source
OTBH Decoded METAR 2019/08/25 13:56 UTC NOAA

Station name not available
Aug 25, 2019 - 09:56 AM EDT / 2019.08.25 1356 UTC
Wind: from the NE (050 degrees) at 12 MPH (10 KT):0
Visibility: 5 mile(s):0
Sky conditions: clear
Weather: haze
Temperature: 105 F (41 C)
Heat index: 104.9 F (40.5 C):1
Dew Point: 59 F (15 C)
Relative Humidity: 21%
Pressure (altimeter): 29.56 in. Hg (1001 hPa)
ob: OTBH 251356Z 05010KT 9000 HZ CLR 41/15 A2956 RMK AO2A SLP011 WND DATA ESTMD ALSTG/SLP ESTMD
cycle: 14

Station Type Date Time Source
OTBH TAF 2019/08/25 08:03 UTC NOAA

TAF TAF OTBH 250800Z 2508/2614 06009KT 9000 HZ SKC QNH2962INS
BECMG 2508/2509 08012KT 9000 HZ SKC QNH2957INS
BECMG 2515/2516 08009KT 9000 HZ SKC QNH2958INS
BECMG 2523/2524 VRB06KT 4800 BR SKC QNH2963INS
BECMG 2604/2605 05009KT 9000 HZ SKC QNH2956INS
BECMG 2611/2612 07012KT 9000 HZ SKC QNH2957INS TX44/2511Z TN31/2600Z

Example: see airport list